Time;durP1;ratioP1;P1;durP2;ratioP2;P2;SDS_P1;SDS_P2;PMS_P1;PMS_P2;Temp;Humidity;BMP_temperature;BMP_pressure;BME280_temperature;BME280_humidity;BME280_pressure;Samples;Min_cycle;Max_cycle;Signal;HPM_P1;HPM_P2
2022/06/11 00:01:26;;;;;;;2.15;1.27;;;;;;;6.50;92.15;100987.13;4997773;28;20046;-58
2022/06/11 00:04:00;;;;;;;1.85;1.20;;;;;;;6.64;91.82;101011.50;5016534;28;20117;-57
2022/06/11 00:06:34;;;;;;;1.90;1.10;;;;;;;6.69;92.04;101020.25;5015795;28;20072;-58
2022/06/11 00:09:08;;;;;;;3.00;1.20;;;;;;;6.75;91.53;101015.13;5011415;28;20081;-57
2022/06/11 00:11:39;;;;;;;2.25;1.23;;;;;;;6.97;91.80;101015.38;5011234;28;20193;-58
2022/06/11 00:14:10;;;;;;;2.30;1.30;;;;;;;7.11;91.06;101013.75;5013943;28;20056;-58
2022/06/11 00:16:42;;;;;;;1.83;0.90;;;;;;;7.21;90.84;101004.31;5005785;28;20073;-59
2022/06/11 00:19:13;;;;;;;3.22;0.90;;;;;;;7.22;90.28;101017.34;5010735;28;20248;-58
2022/06/11 00:21:45;;;;;;;2.47;0.90;;;;;;;7.09;90.06;101010.28;5017059;28;20108;-57
2022/06/11 00:24:17;;;;;;;0.88;0.80;;;;;;;7.05;90.77;101018.91;5017259;28;20055;-58
2022/06/11 00:26:49;;;;;;;1.67;0.80;;;;;;;6.93;90.46;101008.38;5016911;28;20063;-58
2022/06/11 00:29:23;;;;;;;0.95;0.80;;;;;;;6.86;90.70;101018.72;5017184;28;20054;-57
2022/06/11 00:31:54;;;;;;;1.08;1.00;;;;;;;6.64;90.63;100995.94;5017226;28;20352;-57
2022/06/11 00:34:25;;;;;;;1.27;0.85;;;;;;;6.74;90.66;101018.59;5017029;28;20073;-57
2022/06/11 00:36:57;;;;;;;3.05;1.10;;;;;;;6.75;91.16;101014.25;5007911;28;20104;-58
2022/06/11 00:39:33;;;;;;;2.05;0.98;;;;;;;6.89;91.78;101029.16;4997149;28;20064;-57
2022/06/11 00:42:08;;;;;;;1.77;1.02;;;;;;;6.88;90.89;101027.38;4997202;28;20050;-58
2022/06/11 00:44:39;;;;;;;1.38;0.90;;;;;;;6.98;91.37;101027.50;4997154;28;20260;-57
2022/06/11 00:47:17;;;;;;;1.90;0.77;;;;;;;7.04;90.65;101031.03;4997011;28;20066;-57
2022/06/11 00:49:51;;;;;;;3.60;0.60;;;;;;;7.01;90.98;101027.50;4997422;28;20061;-57
2022/06/11 00:52:31;;;;;;;2.17;1.02;;;;;;;7.06;91.34;101036.22;4997273;28;20215;-58
2022/06/11 00:55:10;;;;;;;2.25;0.75;;;;;;;7.16;90.72;101014.66;5012964;28;20064;-58
2022/06/11 00:57:43;;;;;;;2.50;1.10;;;;;;;7.17;91.79;100982.66;5015540;28;20066;-58
2022/06/11 01:00:19;;;;;;;3.22;0.82;;;;;;;7.53;90.73;101012.41;5016961;28;20520;-58
2022/06/11 01:02:50;;;;;;;13.73;8.18;;;;;;;7.39;89.47;101019.22;5016734;28;20081;-58
2022/06/11 01:05:28;;;;;;;9.82;5.93;;;;;;;7.17;90.66;100994.78;5017008;28;20061;-58
2022/06/11 01:08:16;;;;;;;8.90;4.97;;;;;;;7.28;90.87;101012.19;5016592;28;20112;-57
2022/06/11 01:11:09;;;;;;;2.70;2.10;;;;;;;7.31;91.12;101017.44;5016695;28;20053;-57
2022/06/11 01:13:52;;;;;;;2.92;1.90;;;;;;;7.29;91.49;101013.94;5015485;28;20058;-57
2022/06/11 01:16:28;;;;;;;3.83;2.30;;;;;;;7.21;90.90;101020.78;5014615;28;20065;-58
2022/06/11 01:19:08;;;;;;;2.10;1.10;;;;;;;7.20;91.68;101024.25;5020037;28;20062;-57
2022/06/11 01:21:50;;;;;;;1.15;0.88;;;;;;;7.14;91.30;101016.41;5021424;28;20052;-58
2022/06/11 01:24:45;;;;;;;1.83;0.93;;;;;;;7.23;91.28;101024.28;5022271;28;20058;-58
2022/06/11 01:27:45;;;;;;;2.67;1.30;;;;;;;7.21;91.83;101020.78;5025601;28;20065;-58
2022/06/11 01:30:21;;;;;;;2.30;1.20;;;;;;;7.17;91.62;101013.84;5025985;28;20095;-57
2022/06/11 01:33:03;;;;;;;2.40;1.45;;;;;;;6.66;91.80;100931.91;5026156;28;20065;-57
2022/06/11 01:35:43;;;;;;;3.80;0.93;;;;;;;7.21;91.75;101019.91;5025680;28;20054;-57
2022/06/11 01:38:22;;;;;;;1.00;0.80;;;;;;;7.18;91.09;101015.56;5023960;28;20053;-58
2022/06/11 01:41:01;;;;;;;2.70;1.30;;;;;;;7.19;91.80;101004.31;5026427;28;20062;-57
2022/06/11 01:43:35;;;;;;;1.45;1.20;;;;;;;7.23;91.53;100998.28;5026114;28;20064;-58
2022/06/11 01:46:17;;;;;;;3.38;1.15;;;;;;;7.32;91.74;101000.09;5026142;28;20190;-59
2022/06/11 01:48:54;;;;;;;2.83;1.10;;;;;;;7.43;91.78;100997.59;5025760;28;20068;-58
2022/06/11 01:51:32;;;;;;;1.80;1.20;;;;;;;7.37;91.43;101006.22;5025270;28;20042;-58
2022/06/11 01:54:21;;;;;;;1.92;1.23;;;;;;;7.38;91.64;101007.09;5025798;28;20061;-58
2022/06/11 01:57:10;;;;;;;1.88;1.40;;;;;;;7.27;91.01;101010.47;5026103;28;20221;-58
2022/06/11 02:00:11;;;;;;;2.05;1.40;;;;;;;7.15;91.28;101012.94;5024964;28;20260;-58
2022/06/11 02:03:06;;;;;;;3.85;2.25;;;;;;;7.11;91.48;101005.97;5025399;28;20279;-58
2022/06/11 02:05:48;;;;;;;2.35;1.15;;;;;;;6.98;91.57;101009.31;5025649;28;20111;-59
2022/06/11 02:08:27;;;;;;;2.70;1.63;;;;;;;6.96;91.83;100985.03;5025626;28;20061;-58
2022/06/11 02:11:05;;;;;;;3.25;1.30;;;;;;;7.21;92.01;100994.78;5025313;28;20116;-58
2022/06/11 02:13:41;;;;;;;3.17;1.25;;;;;;;7.15;91.87;100970.50;5024771;28;20344;-59
2022/06/11 02:16:21;;;;;;;6.28;1.08;;;;;;;7.39;91.83;100995.81;5025339;28;20055;-59
2022/06/11 02:18:54;;;;;;;;;;;;;;;7.45;91.65;101004.53;5026132;28;20061;-58
2022/06/11 02:21:30;;;;;;;5.85;1.48;;;;;;;7.22;91.67;100970.56;5024041;28;20167;-58
2022/06/11 02:24:05;;;;;;;3.30;1.50;;;;;;;6.94;91.58;100943.47;5025678;28;20062;-57
2022/06/11 02:26:42;;;;;;;6.28;2.00;;;;;;;7.26;91.96;100993.13;5024582;28;20061;-59
2022/06/11 02:29:15;;;;;;;2.20;1.48;;;;;;;7.16;91.35;100975.69;5025362;28;20372;-58
2022/06/11 02:31:48;;;;;;;4.18;2.25;;;;;;;7.23;91.50;100982.69;5024894;28;20391;-59
2022/06/11 02:34:23;;;;;;;1.75;1.30;;;;;;;7.04;91.56;100959.97;5022657;28;20279;-58
2022/06/11 02:36:59;;;;;;;4.93;1.45;;;;;;;6.65;91.87;100901.63;5017605;28;20120;-59
2022/06/11 02:39:33;;;;;;;3.20;1.38;;;;;;;7.25;92.07;100967.97;5011286;28;20042;-58
2022/06/11 02:42:05;;;;;;;2.33;1.40;;;;;;;7.21;91.96;100948.00;5006665;28;20062;-59
2022/06/11 02:44:36;;;;;;;2.78;1.20;;;;;;;7.38;91.96;100960.28;5007043;28;20050;-59
2022/06/11 02:47:07;;;;;;;3.05;1.55;;;;;;;7.40;91.50;100964.63;5007028;28;20062;-57
2022/06/11 02:49:40;;;;;;;5.95;2.47;;;;;;;7.25;90.58;100970.56;5008707;28;20060;-58
2022/06/11 02:52:14;;;;;;;4.60;1.73;;;;;;;7.14;91.04;100974.81;5007700;28;20281;-57
2022/06/11 02:54:45;;;;;;;3.83;2.20;;;;;;;7.09;91.90;100969.59;5006695;28;20289;-58
2022/06/11 02:57:17;;;;;;;3.25;1.70;;;;;;;7.06;91.78;100979.06;5007070;28;20116;-58
2022/06/11 02:59:48;;;;;;;5.30;2.72;;;;;;;7.17;92.24;100974.84;5006933;28;20058;-58
2022/06/11 03:02:20;;;;;;;3.30;2.20;;;;;;;7.00;91.61;100937.44;5007505;28;20050;-57
2022/06/11 03:04:54;;;;;;;2.53;1.40;;;;;;;7.20;91.57;100972.28;5008417;28;20541;-58
2022/06/11 03:07:25;;;;;;;3.33;1.40;;;;;;;7.21;91.52;100974.00;5010498;28;20112;-58
2022/06/11 03:09:56;;;;;;;1.75;1.25;;;;;;;7.18;91.19;100973.97;5008203;28;20058;-58
2022/06/11 03:12:27;;;;;;;3.92;1.10;;;;;;;7.24;91.53;100979.25;5008616;28;20054;-57
2022/06/11 03:14:57;;;;;;;2.33;1.60;;;;;;;7.14;91.52;100977.44;5012088;28;20410;-57
2022/06/11 03:17:28;;;;;;;1.90;1.50;;;;;;;6.81;91.56;100931.19;5020577;28;20050;-58
2022/06/11 03:20:00;;;;;;;3.70;2.00;;;;;;;7.05;92.21;100978.19;5021575;28;20055;-58
2022/06/11 03:22:31;;;;;;;4.75;1.33;;;;;;;7.00;91.92;100968.63;5021878;28;20042;-58
2022/06/11 03:25:02;;;;;;;2.80;1.77;;;;;;;6.95;92.07;100959.91;5022774;28;20058;-58
2022/06/11 03:27:33;;;;;;;2.58;1.58;;;;;;;6.93;92.13;100969.41;5022498;28;20120;-58
2022/06/11 03:30:05;;;;;;;2.03;1.80;;;;;;;6.93;92.44;100967.69;5021856;28;20101;-58
2022/06/11 03:32:35;;;;;;;3.70;2.60;;;;;;;7.04;92.88;100970.38;5022024;28;20053;-58
2022/06/11 03:35:09;;;;;;;4.25;1.70;;;;;;;7.21;93.18;100971.41;5023415;28;20259;-58
2022/06/11 03:37:40;;;;;;;3.15;1.60;;;;;;;7.22;92.68;100967.97;5023994;28;20069;-57
2022/06/11 03:40:12;;;;;;;4.20;1.90;;;;;;;7.02;92.28;100940.94;5024062;28;20108;-58
2022/06/11 03:42:42;;;;;;;3.13;1.70;;;;;;;7.08;91.29;100956.56;5023928;28;20267;-58
2022/06/11 03:45:14;;;;;;;7.03;2.20;;;;;;;7.06;92.37;100960.88;5023550;28;20100;-57
2022/06/11 03:47:44;;;;;;;4.85;1.40;;;;;;;7.07;92.12;100949.63;5024123;28;20318;-58
2022/06/11 03:50:21;;;;;;;3.03;1.10;;;;;;;6.84;92.19;100920.81;5023762;28;20086;-58
2022/06/11 03:52:52;;;;;;;3.58;1.50;;;;;;;6.99;92.46;100948.66;5024216;28;20061;-58
2022/06/11 03:55:24;;;;;;;5.78;1.58;;;;;;;6.93;92.81;100933.03;5024174;28;20093;-58
2022/06/11 03:57:55;;;;;;;1.98;1.30;;;;;;;6.86;92.60;100925.22;5022771;28;20069;-58
2022/06/11 04:03:14;;;;;;;2.17;1.30;;;;;;;6.96;92.26;100951.25;4980608;28;20302;-58
2022/06/11 04:05:48;;;;;;;1.50;1.10;;;;;;;6.83;91.71;100935.53;5023660;28;20054;-58
2022/06/11 04:08:19;;;;;;;2.13;1.27;;;;;;;6.88;92.11;100939.06;5023549;28;20061;-58
2022/06/11 04:10:51;;;;;;;1.73;1.20;;;;;;;6.65;92.31;100904.22;5023555;28;20172;-59
2022/06/11 04:13:23;;;;;;;2.58;1.60;;;;;;;6.78;92.58;100921.63;5023483;28;20116;-59
2022/06/11 04:15:55;;;;;;;2.03;1.42;;;;;;;6.96;93.08;100930.47;5023818;28;20344;-59
2022/06/11 04:18:31;;;;;;;2.03;1.45;;;;;;;7.01;93.30;100933.97;5024035;28;20121;-59
2022/06/11 04:21:07;;;;;;;2.90;1.42;;;;;;;6.93;92.69;100915.72;5023456;28;20069;-59
2022/06/11 04:23:39;;;;;;;2.67;1.30;;;;;;;6.98;93.21;100929.63;5023043;28;20045;-59
2022/06/11 04:26:13;;;;;;;2.42;1.33;;;;;;;7.00;93.23;100927.06;5023170;28;20061;-58
2022/06/11 04:28:44;;;;;;;1.40;1.02;;;;;;;6.71;93.24;100899.06;5022520;28;20053;-59
2022/06/11 04:31:16;;;;;;;4.10;1.27;;;;;;;6.79;93.19;100918.22;5023218;28;20390;-59
2022/06/11 04:33:49;;;;;;;2.50;1.08;;;;;;;6.72;93.13;100916.41;5023546;28;20068;-59
2022/06/11 04:36:24;;;;;;;2.03;1.15;;;;;;;6.76;93.58;100928.53;5023279;28;20244;-59
2022/06/11 04:38:55;;;;;;;2.17;1.38;;;;;;;6.89;93.97;100929.56;5023256;28;20050;-59
2022/06/11 04:41:26;;;;;;;2.35;1.40;;;;;;;6.80;93.92;100913.88;5021973;28;20054;-59
2022/06/11 04:43:57;;;;;;;3.10;1.27;;;;;;;6.83;94.00;100930.34;5021596;28;20062;-59
2022/06/11 04:46:28;;;;;;;3.05;1.30;;;;;;;6.79;93.67;100923.41;5022435;28;20106;-59
2022/06/11 04:48:59;;;;;;;1.73;1.20;;;;;;;6.76;94.06;100918.16;5022576;28;20160;-58
2022/06/11 04:51:31;;;;;;;2.90;1.20;;;;;;;6.70;93.73;100913.78;5022653;28;20045;-58
2022/06/11 04:54:02;;;;;;;2.90;1.40;;;;;;;6.75;93.97;100921.63;5022418;28;20106;-59
2022/06/11 04:56:32;;;;;;;2.55;1.30;;;;;;;6.61;93.75;100873.88;5022556;28;20057;-59
2022/06/11 04:59:06;;;;;;;1.40;1.10;;;;;;;6.74;93.73;100904.31;5022275;28;20064;-58
2022/06/11 05:01:42;;;;;;;1.73;1.30;;;;;;;6.89;94.11;100920.03;5024318;28;20121;-58
2022/06/11 05:04:14;;;;;;;2.58;1.38;;;;;;;6.96;93.32;100914.88;5026377;28;20132;-59
2022/06/11 05:06:49;;;;;;;2.35;1.70;;;;;;;6.93;92.81;100910.53;5026143;28;20566;-58
2022/06/11 05:09:21;;;;;;;2.45;1.88;;;;;;;6.82;92.49;100907.84;5022490;28;20049;-59
2022/06/11 05:11:54;;;;;;;2.72;1.60;;;;;;;7.01;92.15;100902.78;5024321;28;20062;-59
2022/06/11 05:14:25;;;;;;;3.17;1.90;;;;;;;6.69;92.37;100841.06;5023930;28;20057;-58
2022/06/11 05:16:56;;;;;;;2.75;1.73;;;;;;;7.06;92.31;100890.72;5026333;28;20053;-58
2022/06/11 05:19:28;;;;;;;1.25;1.00;;;;;;;7.04;92.15;100892.41;5026267;28;20646;-58
2022/06/11 05:22:00;;;;;;;2.88;1.10;;;;;;;6.97;91.79;100901.91;5021334;28;20367;-57
2022/06/11 05:24:31;;;;;;;2.00;1.30;;;;;;;6.87;91.89;100900.09;5025771;28;20050;-58
2022/06/11 05:27:06;;;;;;;1.88;1.20;;;;;;;6.81;92.88;100900.88;5026006;28;20061;-58
2022/06/11 05:29:44;;;;;;;1.15;1.05;;;;;;;6.53;92.56;100872.94;5025706;28;20109;-59
2022/06/11 05:32:14;;;;;;;1.60;1.20;;;;;;;6.74;92.92;100906.91;5025597;28;20045;-60
2022/06/11 05:34:46;;;;;;;1.63;1.20;;;;;;;6.54;92.81;100862.56;5023811;28;20057;-59
2022/06/11 05:37:18;;;;;;;1.27;1.17;;;;;;;6.78;93.08;100890.47;5024286;28;20072;-59
2022/06/11 05:39:49;;;;;;;1.92;1.33;;;;;;;6.84;93.22;100890.53;5025412;28;20078;-58
2022/06/11 05:42:22;;;;;;;2.35;1.25;;;;;;;6.89;92.98;100903.59;5025297;28;20041;-58
2022/06/11 05:44:53;;;;;;;2.35;1.25;;;;;;;6.82;92.26;100896.59;5025541;28;20248;-58
2022/06/11 05:47:26;;;;;;;1.98;1.23;;;;;;;6.83;92.48;100898.31;5025904;28;20049;-58
2022/06/11 05:50:00;;;;;;;2.60;1.50;;;;;;;6.77;92.06;100899.13;5025262;28;20049;-59
2022/06/11 05:52:37;;;;;;;2.25;1.50;;;;;;;6.68;92.23;100899.03;5024004;28;20061;-58
2022/06/11 05:55:08;;;;;;;2.50;1.60;;;;;;;6.63;92.62;100895.53;5023704;28;20061;-58
2022/06/11 05:57:39;;;;;;;4.70;2.30;;;;;;;6.65;92.65;100893.81;5023413;28;20063;-58
2022/06/11 06:00:14;;;;;;;3.35;1.90;;;;;;;6.42;92.71;100860.72;5023629;28;20360;-58
2022/06/11 06:02:45;;;;;;;6.28;2.90;;;;;;;6.61;92.94;100894.63;5022549;28;20482;-58
2022/06/11 06:05:19;;;;;;;7.82;4.00;;;;;;;6.45;92.79;100868.53;5023806;28;20053;-59
2022/06/11 06:07:56;;;;;;;5.78;2.83;;;;;;;6.65;93.05;100891.22;5022444;28;20064;-58
2022/06/11 06:10:26;;;;;;;6.03;3.75;;;;;;;6.60;92.52;100898.09;5024173;28;20383;-59
2022/06/11 06:12:57;;;;;;;3.03;1.55;;;;;;;6.50;92.51;100894.53;5022720;28;20060;-59
2022/06/11 06:15:32;;;;;;;3.30;2.38;;;;;;;6.47;92.85;100874.59;5023542;28;20121;-58
2022/06/11 06:18:03;;;;;;;3.38;2.53;;;;;;;6.53;92.44;100888.50;5023203;28;20065;-59
2022/06/11 06:20:34;;;;;;;5.03;2.60;;;;;;;6.46;92.09;100878.06;5023009;28;20060;-58
2022/06/11 06:23:06;;;;;;;4.45;2.60;;;;;;;6.42;92.93;100876.28;5023002;28;20426;-58
2022/06/11 06:25:37;;;;;;;3.95;2.00;;;;;;;6.48;93.17;100878.94;5023737;28;20058;-58
2022/06/11 06:28:08;;;;;;;4.90;2.05;;;;;;;6.41;92.83;100874.53;5022667;28;20068;-58
2022/06/11 06:30:40;;;;;;;6.97;3.20;;;;;;;6.47;92.88;100885.00;5023369;28;20061;-58
2022/06/11 06:33:10;;;;;;;4.43;1.88;;;;;;;6.41;93.51;100869.34;5022692;28;20336;-58
2022/06/11 06:35:41;;;;;;;4.38;2.22;;;;;;;6.34;93.06;100875.34;5023165;28;20252;-58
2022/06/11 06:38:14;;;;;;;6.53;2.10;;;;;;;6.33;93.42;100864.94;5022288;28;20055;-58
2022/06/11 06:40:45;;;;;;;2.72;2.42;;;;;;;6.40;93.89;100866.75;5024336;28;20167;-58
2022/06/11 06:43:19;;;;;;;5.25;3.10;;;;;;;6.43;93.94;100862.44;5023290;28;20655;-58
2022/06/11 06:45:50;;;;;;;3.97;2.10;;;;;;;6.39;93.85;100859.78;5023546;28;20085;-58
2022/06/11 06:48:21;;;;;;;5.13;3.13;;;;;;;6.20;93.69;100857.00;5023279;28;20068;-58
2022/06/11 06:50:52;;;;;;;6.82;3.03;;;;;;;6.45;94.20;100865.94;5022691;28;20058;-58
2022/06/11 06:53:25;;;;;;;3.03;2.35;;;;;;;6.46;93.60;100865.09;5022883;28;20063;-59
2022/06/11 06:55:57;;;;;;;4.28;2.17;;;;;;;6.37;93.54;100866.72;5022268;28;20064;-59
2022/06/11 06:58:27;;;;;;;6.03;3.08;;;;;;;6.41;94.20;100889.25;5022311;28;20053;-59
2022/06/11 07:00:58;;;;;;;4.28;2.55;;;;;;;6.43;94.08;100877.16;5023414;28;20053;-59
2022/06/11 07:03:28;;;;;;;7.30;4.40;;;;;;;6.32;94.42;100874.44;5023697;28;20057;-58
2022/06/11 07:05:59;;;;;;;7.40;3.97;;;;;;;6.30;94.49;100876.16;5023032;28;20107;-58
2022/06/11 07:08:31;;;;;;;5.18;2.75;;;;;;;6.24;94.02;100876.06;5023046;28;20054;-58
2022/06/11 07:11:02;;;;;;;7.28;3.40;;;;;;;6.17;94.29;100884.66;5022877;28;20049;-58
2022/06/11 07:13:33;;;;;;;4.50;2.40;;;;;;;6.12;94.51;100881.16;5022388;28;20076;-59
2022/06/11 07:16:05;;;;;;;3.58;2.30;;;;;;;6.03;94.63;100887.94;5023980;28;20062;-59
2022/06/11 07:18:41;;;;;;;3.08;2.00;;;;;;;5.95;94.84;100887.00;5023777;28;20064;-58
2022/06/11 07:21:18;;;;;;;4.95;2.60;;;;;;;5.92;95.24;100889.53;5023995;28;20068;-59
2022/06/11 07:23:54;;;;;;;6.07;2.75;;;;;;;5.92;94.93;100876.56;5022963;28;20083;-59
2022/06/11 07:26:31;;;;;;;3.75;2.53;;;;;;;5.85;95.10;100877.31;5023539;28;20707;-58
2022/06/11 07:29:07;;;;;;;5.95;2.70;;;;;;;5.91;95.04;100872.19;5020600;28;20049;-58
2022/06/11 07:31:38;;;;;;;5.65;2.78;;;;;;;5.83;95.17;100868.66;5022515;28;20064;-58
2022/06/11 07:34:09;;;;;;;3.35;2.60;;;;;;;5.83;95.36;100879.03;5023442;28;20062;-58
2022/06/11 07:36:40;;;;;;;5.88;3.03;;;;;;;5.78;95.60;100865.13;5021945;28;20045;-58
2022/06/11 07:39:16;;;;;;;6.05;3.92;;;;;;;5.90;95.62;100880.84;5023395;28;20148;-58
2022/06/11 07:41:46;;;;;;;9.75;4.80;;;;;;;5.87;95.71;100875.63;5022971;28;20045;-58
2022/06/11 07:44:17;;;;;;;6.75;3.95;;;;;;;5.82;96.06;100874.69;5023575;28;20069;-58
2022/06/11 07:46:47;;;;;;;7.70;4.63;;;;;;;5.78;96.17;100870.31;5023636;28;20057;-58
2022/06/11 07:49:18;;;;;;;6.13;4.00;;;;;;;5.78;96.39;100875.50;5023527;28;20115;-59
2022/06/11 07:51:49;;;;;;;8.45;3.67;;;;;;;5.75;96.10;100880.66;5023358;28;20241;-59
2022/06/11 07:54:21;;;;;;;9.63;4.22;;;;;;;5.72;96.29;100883.22;5023168;28;20410;-58
2022/06/11 07:56:51;;;;;;;10.02;4.28;;;;;;;5.66;96.47;100875.34;5019846;28;20053;-59
2022/06/11 07:59:22;;;;;;;13.38;5.50;;;;;;;5.68;96.42;100873.63;5022347;28;20100;-58
2022/06/11 08:01:53;;;;;;;9.55;5.30;;;;;;;5.73;96.67;100874.56;5021409;28;20058;-58
2022/06/11 08:04:25;;;;;;;7.72;4.18;;;;;;;5.78;96.85;100875.50;5023773;28;20056;-58
2022/06/11 08:06:56;;;;;;;21.13;3.85;;;;;;;5.73;96.41;100877.16;5023567;28;20088;-58
2022/06/11 08:09:28;;;;;;;19.55;3.83;;;;;;;5.69;96.42;100885.75;5022701;28;20313;-59
2022/06/11 08:11:59;;;;;;;10.32;4.38;;;;;;;5.61;96.47;100889.09;5023484;28;20072;-59
2022/06/11 08:14:29;;;;;;;10.20;4.20;;;;;;;5.59;96.77;100883.03;5023523;28;20061;-58
2022/06/11 08:17:00;;;;;;;8.35;4.00;;;;;;;5.57;97.01;100887.31;5023608;28;20052;-58
2022/06/11 08:19:31;;;;;;;12.00;3.30;;;;;;;5.52;96.87;100878.63;5022990;28;20052;-59
2022/06/11 08:22:01;;;;;;;8.88;3.30;;;;;;;5.47;96.92;100876.81;5023397;28;20056;-58
2022/06/11 08:24:34;;;;;;;27.08;4.53;;;;;;;5.31;96.97;100863.63;5023484;28;20124;-59
2022/06/11 08:27:05;;;;;;;19.55;3.28;;;;;;;5.38;97.02;100896.53;5022359;28;20416;-59
2022/06/11 08:29:35;;;;;;;19.90;5.07;;;;;;;5.35;97.30;100901.69;5022795;28;20049;-59
2022/06/11 08:32:07;;;;;;;18.67;4.75;;;;;;;5.36;97.85;100892.19;5022996;28;20125;-59
2022/06/11 08:34:39;;;;;;;17.83;4.00;;;;;;;5.30;97.49;100890.38;5023086;28;20089;-58
2022/06/11 08:37:10;;;;;;;20.08;4.57;;;;;;;5.22;97.88;100889.41;5022475;28;20236;-59
2022/06/11 08:39:43;;;;;;;19.15;4.97;;;;;;;5.28;98.06;100901.56;5023291;28;20068;-59
2022/06/11 08:42:36;;;;;;;30.63;6.05;;;;;;;5.31;98.28;100909.38;5022847;28;20116;-58
2022/06/11 08:45:17;;;;;;;22.92;4.72;;;;;;;5.31;98.26;100901.63;5023136;28;20077;-58
2022/06/11 08:47:52;;;;;;;36.17;4.85;;;;;;;5.26;98.05;100895.50;5023165;28;21015;-58
2022/06/11 08:50:32;;;;;;;32.85;4.60;;;;;;;5.29;98.30;100908.50;5023246;28;20132;-58
2022/06/11 08:53:05;;;;;;;28.42;3.53;;;;;;;5.27;98.66;100913.66;5022953;28;20060;-58
2022/06/11 08:55:40;;;;;;;18.02;4.20;;;;;;;5.30;98.69;100912.84;5022692;28;20271;-57
2022/06/11 08:58:34;;;;;;;14.90;3.38;;;;;;;5.30;98.05;100910.25;5022711;28;20065;-58
2022/06/11 09:01:13;;;;;;;14.68;3.50;;;;;;;5.26;97.87;100911.03;5022938;28;20533;-60
2022/06/11 09:04:05;;;;;;;8.13;3.53;;;;;;;5.22;98.32;100917.00;5022591;28;20058;-59
2022/06/11 09:07:02;;;;;;;11.98;4.18;;;;;;;5.21;98.54;100913.56;5021679;28;20272;-58
2022/06/11 09:09:50;;;;;;;16.67;3.88;;;;;;;5.22;98.45;100917.00;5023045;28;20061;-58
2022/06/11 09:13:00;;;;;;;10.88;2.97;;;;;;;5.17;98.86;100917.81;5023068;28;20061;-58
2022/06/11 09:15:42;;;;;;;14.65;3.47;;;;;;;5.11;98.98;100917.72;5022409;28;20052;-58
2022/06/11 09:18:43;;;;;;;19.13;3.97;;;;;;;5.13;98.99;100916.03;5022754;28;20287;-58
2022/06/11 09:21:36;;;;;;;62.47;5.28;;;;;;;5.11;99.29;100927.22;5022857;28;20053;-58
2022/06/11 09:24:22;;;;;;;17.70;3.97;;;;;;;5.07;99.03;100928.03;5022695;28;20052;-58
2022/06/11 09:27:00;;;;;;;42.15;4.05;;;;;;;5.03;99.12;100924.50;5022044;28;20112;-58
2022/06/11 09:29:45;;;;;;;26.83;4.20;;;;;;;5.06;99.69;100934.91;5022575;28;20053;-58
2022/06/11 09:32:19;;;;;;;13.40;4.00;;;;;;;5.09;99.72;100934.97;5020068;28;20053;-58
2022/06/11 09:34:53;;;;;;;34.97;4.60;;;;;;;4.99;99.80;100917.50;5019594;28;20054;-57
2022/06/11 09:37:30;;;;;;;86.60;6.70;;;;;;;5.09;99.49;100929.78;5020767;28;20072;-58
2022/06/11 09:40:09;;;;;;;33.47;4.68;;;;;;;5.12;99.27;100945.38;5021589;28;20320;-58
2022/06/11 09:42:58;;;;;;;45.97;5.00;;;;;;;5.11;99.52;100942.75;5020545;28;20100;-59
2022/06/11 09:45:37;;;;;;;39.67;4.55;;;;;;;4.99;99.68;100938.22;5019425;28;21024;-59
2022/06/11 09:48:21;;;;;;;54.17;4.95;;;;;;;5.01;99.89;100941.72;5022359;28;20069;-60
2022/06/11 09:50:58;;;;;;;30.05;4.20;;;;;;;5.01;99.94;100946.91;5020396;28;20041;-59
2022/06/11 09:53:42;;;;;;;33.63;3.88;;;;;;;5.06;99.62;100953.03;5023539;28;20072;-59
2022/06/11 09:56:22;;;;;;;16.42;3.20;;;;;;;4.98;99.33;100946.84;5025006;28;20336;-59
2022/06/11 09:59:03;;;;;;;27.05;3.67;;;;;;;4.95;99.69;100952.00;5025206;28;20067;-59
2022/06/11 10:01:45;;;;;;;72.45;5.32;;;;;;;4.97;99.67;100960.66;5023551;28;20068;-59
2022/06/11 10:04:19;;;;;;;18.92;4.47;;;;;;;4.93;99.62;100958.84;5025395;28;20081;-59
2022/06/11 10:06:54;;;;;;;23.05;4.47;;;;;;;4.87;99.67;100954.44;5023929;28;20050;-60
2022/06/11 10:09:29;;;;;;;21.13;4.95;;;;;;;4.94;99.92;100960.59;5023662;28;20045;-59
2022/06/11 10:12:13;;;;;;;26.65;4.95;;;;;;;4.98;99.89;100962.41;5023999;28;20080;-59
2022/06/11 10:14:51;;;;;;;61.65;4.93;;;;;;;5.07;99.87;100957.38;5023335;28;20317;-60
2022/06/11 10:17:30;;;;;;;44.17;5.00;;;;;;;5.05;99.77;100959.06;5022830;28;20053;-60
2022/06/11 10:20:07;;;;;;;20.88;4.50;;;;;;;4.91;99.45;100939.81;5023657;28;20057;-59
2022/06/11 10:22:45;;;;;;;25.23;3.35;;;;;;;4.78;99.22;100922.34;5024485;28;20255;-57
2022/06/11 10:25:27;;;;;;;56.15;4.18;;;;;;;4.93;99.28;100953.69;5025067;28;20077;-58
2022/06/11 10:28:03;;;;;;;41.00;3.63;;;;;;;4.90;99.21;100958.81;5024165;28;20091;-59
2022/06/11 10:30:43;;;;;;;17.17;3.58;;;;;;;4.95;99.51;100964.94;5024474;28;20053;-59
2022/06/11 10:33:23;;;;;;;18.10;3.45;;;;;;;4.92;99.58;100967.47;5024496;28;20061;-58
2022/06/11 10:35:56;;;;;;;;;;;;;;;4.90;99.73;100963.97;5025312;28;20057;-58
2022/06/11 10:38:42;;;;;;;27.45;3.72;;;;;;;4.88;99.36;100965.66;5025585;28;20262;-58
2022/06/11 10:41:21;;;;;;;13.25;3.25;;;;;;;4.24;99.43;100883.41;5024934;28;20463;-58
2022/06/11 10:44:04;;;;;;;19.95;3.28;;;;;;;4.79;99.18;100962.91;5024221;28;20034;-59
2022/06/11 10:46:37;;;;;;;29.73;3.58;;;;;;;4.84;99.53;100958.69;5022869;28;20053;-59
2022/06/11 10:49:15;;;;;;;52.75;4.63;;;;;;;4.75;99.60;100965.44;5024116;28;20091;-59
2022/06/11 10:51:53;;;;;;;53.08;4.72;;;;;;;4.70;99.79;100946.38;5024834;28;20053;-59
2022/06/11 10:54:26;;;;;;;45.60;4.70;;;;;;;4.66;99.69;100944.56;5023077;28;20762;-59
2022/06/11 10:56:59;;;;;;;30.65;3.92;;;;;;;4.80;99.50;100972.44;5024203;28;20053;-59
2022/06/11 10:59:35;;;;;;;45.75;4.13;;;;;;;4.79;99.83;100965.50;5021384;28;20064;-59
2022/06/11 11:02:25;;;;;;;34.38;4.45;;;;;;;4.75;99.93;100968.03;5024435;28;20065;-60
2022/06/11 11:05:02;;;;;;;35.78;5.15;;;;;;;4.69;100.00;100960.16;5023335;28;20964;-59
2022/06/11 11:07:51;;;;;;;17.08;3.97;;;;;;;4.49;100.00;100925.25;5020929;28;20063;-59
2022/06/11 11:10:44;;;;;;;30.23;4.80;;;;;;;4.76;100.00;100969.75;5023783;28;20049;-59
2022/06/11 11:13:25;;;;;;;22.60;4.13;;;;;;;4.75;100.00;100968.03;5024385;28;20062;-59
2022/06/11 11:16:03;;;;;;;26.20;4.50;;;;;;;4.76;100.00;100982.72;5024129;28;20120;-59
2022/06/11 11:18:41;;;;;;;49.53;4.40;;;;;;;4.76;100.00;100977.53;5024519;28;20049;-59
2022/06/11 11:21:23;;;;;;;29.33;4.25;;;;;;;4.74;100.00;100979.25;5024426;28;20061;-59
2022/06/11 11:24:05;;;;;;;32.97;4.22;;;;;;;4.75;100.00;100983.56;5024343;28;20283;-59
2022/06/11 11:26:47;;;;;;;22.85;5.32;;;;;;;4.76;100.00;100992.19;5024245;28;20046;-59
2022/06/11 11:29:24;;;;;;;23.08;4.80;;;;;;;4.56;100.00;100947.81;5024029;28;20056;-59
2022/06/11 11:31:58;;;;;;;19.17;4.60;;;;;;;4.74;100.00;100974.06;5024084;28;20117;-61
2022/06/11 11:34:31;;;;;;;23.00;4.97;;;;;;;4.72;100.00;100975.75;5024239;28;20054;-60
2022/06/11 11:37:24;;;;;;;27.55;4.30;;;;;;;4.70;100.00;100971.38;5024421;28;20340;-59
2022/06/11 11:39:56;;;;;;;22.75;4.82;;;;;;;4.68;100.00;100963.56;5023775;28;20100;-59
2022/06/11 11:42:28;;;;;;;30.55;5.60;;;;;;;4.77;100.00;100973.25;5023801;28;20053;-57
2022/06/11 11:44:59;;;;;;;21.83;5.13;;;;;;;4.76;100.00;100966.31;5022776;28;20133;-59
2022/06/11 11:47:35;;;;;;;23.20;5.70;;;;;;;4.78;100.00;100968.94;5022317;28;20058;-59
2022/06/11 11:50:17;;;;;;;13.10;4.75;;;;;;;4.76;100.00;100959.41;5021820;28;20081;-59
2022/06/11 11:52:55;;;;;;;23.70;5.10;;;;;;;4.55;100.00;100925.38;5021952;28;20061;-59
2022/06/11 11:55:29;;;;;;;18.13;3.67;;;;;;;4.78;100.00;100961.16;5021182;28;20100;-59
2022/06/11 11:58:04;;;;;;;22.67;5.03;;;;;;;4.75;100.00;100965.44;5022067;28;20062;-59
2022/06/11 12:00:44;;;;;;;17.10;4.90;;;;;;;4.73;100.00;100961.94;5023113;28;20069;-59
2022/06/11 12:03:23;;;;;;;7.55;4.65;;;;;;;4.73;100.00;100956.78;5023771;28;20090;-59
2022/06/11 12:05:56;;;;;;;14.10;4.38;;;;;;;4.72;100.00;100955.03;5023705;28;20071;-59
2022/06/11 12:08:30;;;;;;;20.75;4.63;;;;;;;4.71;100.00;100963.63;5023694;28;20095;-60
2022/06/11 12:11:02;;;;;;;8.27;4.30;;;;;;;4.73;100.00;100959.34;5023795;28;21122;-59
2022/06/11 12:13:44;;;;;;;14.63;5.28;;;;;;;4.72;100.00;100949.84;5023540;28;20057;-59